Strona główna
METAR-TAF:

METAR-TAF

Lotnisko :

Moorhead Municipal Airport

Moorhead, Minnesota, Stany Zjednoczone

Szerokość geograficzna: 46-50-21N, Długość geograficzna: 096-39-47W, wysokość: 280 m

Aktualna obserwacja pogody

Raport powstał 20 minut temu, godzina 18:56 UTC
Wiatr 8 kt od północ
Temperatura 20°C
Wilgotność 53%
Ciśnienie 1015 hPa
Widzialność: 16.1 km
Rozproszone chmury na wysokości 4000 ft

METAR: KJKJ 181856Z AUTO 01008KT 10SM SCT040 20/10 A2998 RMK AO2

czas: 14:16 (19:16 UTC)


TAF: brakujący

Obserwacja i prognoza pogody dla ponad 4000 lotnisk (raport METAR i TAF).

Dostępne stacje oznaczono żółtymi i czerwonymi punktami na mapie.

Najedź kursorem aby zobaczyć nazwę stacji.

Kliknij aby zobaczyć obserwacje i prognozy pogody.

Aby zmienić mapę: kliknij na zielony przycisk z czarnym krzyżykiem, aby powiększyć; na zielony przycisk z myślnikiem, aby pomniejszyć; na zielone strzałki, aby przejść do map sąsiednich.


METAR-TAF: